createdAt,value
2024-01-15T00:00:23.897Z,69.40
2024-01-15T00:05:25.912Z,69.20
2024-01-15T00:10:29.026Z,69.50
2024-01-15T00:15:31.342Z,69.60
2024-01-15T00:20:33.336Z,69.70
2024-01-15T00:25:35.180Z,69.60
2024-01-15T00:30:37.127Z,69.60
2024-01-15T00:35:39.101Z,69.70
2024-01-15T00:40:41.055Z,69.70
2024-01-15T00:45:43.500Z,69.70
2024-01-15T00:50:45.396Z,69.70
2024-01-15T00:55:47.252Z,69.60
2024-01-15T01:00:49.301Z,69.60
2024-01-15T01:05:51.348Z,69.60
2024-01-15T01:10:53.180Z,69.70
2024-01-15T01:15:55.094Z,69.70
2024-01-15T01:20:56.988Z,69.60
2024-01-15T01:25:58.872Z,69.60
2024-01-15T01:31:01.224Z,69.50
2024-01-15T01:36:08.939Z,69.60
2024-01-15T01:41:11.473Z,69.80
2024-01-15T01:46:13.380Z,70.40
2024-01-15T01:51:16.005Z,69.70
2024-01-15T01:56:19.405Z,69.70
2024-01-15T02:01:21.775Z,69.80
2024-01-15T02:06:24.868Z,69.90
2024-01-15T02:11:26.856Z,70.00
2024-01-15T02:16:28.660Z,69.90
2024-01-15T02:21:30.940Z,69.90
2024-01-15T02:26:36.975Z,70.00
2024-01-15T02:31:39.374Z,70.00
2024-01-15T02:36:41.326Z,69.80
2024-01-15T02:41:43.240Z,69.80
2024-01-15T02:46:45.085Z,69.90
2024-01-15T02:51:48.004Z,69.80
2024-01-15T02:56:49.864Z,69.80
2024-01-15T03:01:51.767Z,69.90
2024-01-15T03:06:53.720Z,69.80
2024-01-15T03:11:55.603Z,69.80
2024-01-15T03:16:57.445Z,69.70
2024-01-15T03:21:59.374Z,69.30
2024-01-15T03:27:01.674Z,69.40
2024-01-15T03:32:03.922Z,69.70
2024-01-15T03:37:05.943Z,69.60
2024-01-15T03:42:08.365Z,69.50
2024-01-15T03:47:10.428Z,69.40
2024-01-15T03:52:12.278Z,69.40
2024-01-15T03:57:14.096Z,69.60
2024-01-15T04:02:16.067Z,69.50
2024-01-15T04:07:18.039Z,69.30
2024-01-15T04:12:19.995Z,69.30
2024-01-15T04:17:23.005Z,69.30
2024-01-15T04:22:25.080Z,69.30
2024-01-15T04:27:26.941Z,69.20
2024-01-15T04:32:28.815Z,69.10
2024-01-15T04:37:30.671Z,69.20
2024-01-15T04:42:32.628Z,69.00
2024-01-15T04:47:34.844Z,68.70
2024-01-15T04:52:36.735Z,68.60
2024-01-15T04:57:38.658Z,68.50
2024-01-15T05:02:40.611Z,68.40
2024-01-15T05:07:42.579Z,68.00
2024-01-15T05:12:44.470Z,68.70
2024-01-15T05:17:46.508Z,68.00
2024-01-15T05:22:48.495Z,68.00
2024-01-15T05:27:50.527Z,67.90
2024-01-15T05:32:52.577Z,67.90
2024-01-15T05:37:54.483Z,67.90
2024-01-15T05:42:56.418Z,67.80
2024-01-15T05:47:58.386Z,67.50
2024-01-15T05:53:00.300Z,67.60
2024-01-15T05:58:02.163Z,67.80
2024-01-15T06:03:04.122Z,67.70
2024-01-15T06:08:06.178Z,67.40
2024-01-15T06:13:08.115Z,67.40
2024-01-15T06:18:10.153Z,68.10
2024-01-15T06:23:12.211Z,67.40
2024-01-15T06:28:14.214Z,68.10
2024-01-15T06:33:16.218Z,67.40
2024-01-15T06:38:18.152Z,67.50
2024-01-15T06:43:20.024Z,67.50
2024-01-15T06:48:21.979Z,67.60
2024-01-15T06:53:23.929Z,67.60
2024-01-15T06:58:25.851Z,67.30
2024-01-15T07:03:27.877Z,67.30
2024-01-15T07:08:29.834Z,67.40
2024-01-15T07:13:32.101Z,67.50
2024-01-15T07:18:34.148Z,67.60
2024-01-15T07:23:36.167Z,67.80
2024-01-15T07:28:38.116Z,67.90
2024-01-15T07:33:40.088Z,67.70
2024-01-15T07:38:42.046Z,67.50
2024-01-15T07:43:44.068Z,67.80
2024-01-15T07:48:46.107Z,67.80
2024-01-15T07:53:48.206Z,67.80
2024-01-15T07:58:50.085Z,67.70
2024-01-15T08:03:53.407Z,67.50
2024-01-15T08:08:55.426Z,67.50
2024-01-15T08:13:57.537Z,67.40
2024-01-15T08:18:59.639Z,67.30
2024-01-15T08:24:03.317Z,67.20
2024-01-15T08:29:05.267Z,67.40
2024-01-15T08:34:07.769Z,67.30
2024-01-15T08:39:10.407Z,68.00
2024-01-15T08:44:12.577Z,67.30
2024-01-15T08:49:14.717Z,67.00
2024-01-15T08:54:16.766Z,67.20
2024-01-15T08:59:25.652Z,67.40
2024-01-15T09:04:27.805Z,67.40
2024-01-15T09:09:29.904Z,67.30
2024-01-15T09:14:36.743Z,67.30
2024-01-15T09:19:41.083Z,67.50
2024-01-15T09:24:43.351Z,67.50
2024-01-15T09:29:47.162Z,67.70
2024-01-15T09:34:49.508Z,67.70
2024-01-15T09:39:51.651Z,67.80
2024-01-15T09:44:54.176Z,67.90
2024-01-15T09:49:59.208Z,68.00
2024-01-15T09:55:04.577Z,67.80
2024-01-15T10:00:08.529Z,67.80
2024-01-15T10:05:10.937Z,67.60
2024-01-15T10:10:16.018Z,67.70
2024-01-15T11:04:08.166Z,67.50
2024-01-15T11:10:41.368Z,67.70
2024-01-15T11:16:12.736Z,67.80
2024-01-15T16:57:35.667Z,66.50
2024-01-15T22:25:06.778Z,65.90
2024-01-15T22:30:37.926Z,65.90
2024-01-15T22:35:48.436Z,65.80
2024-01-15T22:40:54.576Z,65.50
2024-01-15T22:46:03.550Z,65.60
2024-01-15T22:51:08.243Z,65.40
2024-01-15T22:56:10.492Z,65.60
2024-01-15T23:01:22.977Z,65.10
2024-01-15T23:06:27.940Z,65.40
2024-01-15T23:11:33.749Z,65.20
2024-01-15T23:16:36.420Z,65.20
2024-01-15T23:21:38.623Z,65.00
2024-01-15T23:26:41.725Z,64.90
2024-01-15T23:31:49.623Z,64.90
2024-01-15T23:36:55.624Z,64.70
2024-01-15T23:42:03.690Z,64.90
2024-01-15T23:47:13.415Z,64.60
2024-01-15T23:52:23.463Z,64.80
2024-01-15T23:57:27.927Z,64.60
